createdAt,value
2022-11-27T00:00:53.913Z,40.65
2022-11-27T00:02:56.298Z,39.45
2022-11-27T00:04:58.383Z,38.45
2022-11-27T00:07:00.526Z,38.90
2022-11-27T00:09:06.424Z,40.80
2022-11-27T00:11:14.864Z,37.45
2022-11-27T00:13:17.394Z,41.58
2022-11-27T00:15:19.503Z,39.13
2022-11-27T00:17:21.661Z,36.28
2022-11-27T00:19:23.690Z,35.33
2022-11-27T00:21:32.980Z,34.85
2022-11-27T00:23:35.702Z,46.13
2022-11-27T00:25:37.914Z,45.95
2022-11-27T00:29:44.313Z,37.08
2022-11-27T00:31:46.518Z,39.50
2022-11-27T00:33:49.039Z,40.58
2022-11-27T00:35:51.088Z,40.92
2022-11-27T00:37:53.275Z,35.72
2022-11-27T00:39:55.447Z,42.10
2022-11-27T00:41:57.589Z,36.55
2022-11-27T00:43:59.737Z,38.92
2022-11-27T00:46:02.247Z,33.97
2022-11-27T00:48:04.635Z,36.92
2022-11-27T00:50:07.569Z,43.20
2022-11-27T00:52:09.853Z,38.47
2022-11-27T00:56:20.361Z,33.83
2022-11-27T00:58:23.224Z,37.92
2022-11-27T01:00:25.350Z,37.85
2022-11-27T01:02:27.491Z,40.13
2022-11-27T01:04:30.450Z,36.33
2022-11-27T01:06:33.584Z,38.05
2022-11-27T01:08:35.642Z,36.65
2022-11-27T01:10:37.739Z,35.53
2022-11-27T01:12:39.876Z,37.08
2022-11-27T01:14:42.049Z,42.60
2022-11-27T01:18:47.804Z,41.17
2022-11-27T01:20:52.945Z,32.50
2022-11-27T01:22:55.019Z,38.30
2022-11-27T01:24:57.227Z,37.42
2022-11-27T01:26:59.269Z,33.85
2022-11-27T01:29:01.646Z,32.88
2022-11-27T01:33:10.341Z,35.13
2022-11-27T01:35:12.389Z,36.05
2022-11-27T01:37:14.480Z,41.30
2022-11-27T01:39:20.139Z,37.22
2022-11-27T01:41:37.169Z,37.95
2022-11-27T01:43:41.273Z,38.28
2022-11-27T01:45:45.576Z,41.30
2022-11-27T01:47:52.255Z,36.53
2022-11-27T01:49:56.950Z,36.33
2022-11-27T01:52:04.910Z,43.92
2022-11-27T01:54:10.599Z,45.30
2022-11-27T01:56:13.433Z,40.60
2022-11-27T01:58:22.236Z,40.45
2022-11-27T02:00:25.395Z,37.25
2022-11-27T02:02:28.191Z,39.30
2022-11-27T02:04:33.239Z,36.53
2022-11-27T02:06:35.459Z,41.25
2022-11-27T02:08:38.279Z,39.83
2022-11-27T02:10:48.150Z,34.75
2022-11-27T02:12:59.128Z,38.55
2022-11-27T02:15:09.413Z,42.47
2022-11-27T02:17:22.865Z,41.42
2022-11-27T02:19:40.375Z,33.67
2022-11-27T02:22:02.960Z,37.00
2022-11-27T02:24:29.433Z,38.90
2022-11-27T02:26:52.338Z,40.25
2022-11-27T02:29:04.189Z,32.63
2022-11-27T02:31:14.223Z,40.00
2022-11-27T02:33:20.213Z,41.08
2022-11-27T02:35:48.150Z,39.42
2022-11-27T02:38:21.143Z,37.70
2022-11-27T02:40:41.786Z,33.10
2022-11-27T02:42:54.882Z,43.33
2022-11-27T02:47:06.198Z,43.50
2022-11-27T02:49:16.414Z,47.42
2022-11-27T02:51:22.771Z,46.55
2022-11-27T02:53:38.020Z,46.05
2022-11-27T02:55:41.929Z,49.55
2022-11-27T02:57:46.113Z,41.80
2022-11-27T02:59:50.423Z,36.63
2022-11-27T03:01:57.615Z,45.47
2022-11-27T03:04:02.920Z,50.22
2022-11-27T03:06:18.728Z,43.67
2022-11-27T03:08:27.610Z,47.78
2022-11-27T03:10:40.461Z,42.72
2022-11-27T03:12:42.488Z,47.10
2022-11-27T03:14:45.601Z,45.30
2022-11-27T03:16:56.242Z,84.82
2022-11-27T03:19:08.135Z,65.07
2022-11-27T03:21:30.707Z,51.78
2022-11-27T03:23:32.850Z,45.10
2022-11-27T03:25:34.934Z,44.28
2022-11-27T03:27:46.343Z,44.00
2022-11-27T03:29:52.938Z,51.05
2022-11-27T03:31:56.598Z,45.55
2022-11-27T03:33:58.816Z,49.63
2022-11-27T03:36:00.978Z,41.00
2022-11-27T03:38:03.255Z,44.58
2022-11-27T03:42:32.203Z,52.35
2022-11-27T03:44:50.657Z,43.72
2022-11-27T03:47:01.669Z,45.30
2022-11-27T03:49:14.826Z,51.70
2022-11-27T03:51:41.801Z,41.42
2022-11-27T03:54:05.549Z,45.83
2022-11-27T03:56:19.178Z,42.05
2022-11-27T03:58:23.877Z,44.50
2022-11-27T04:00:28.320Z,47.22
2022-11-27T04:02:39.382Z,42.20
2022-11-27T04:04:41.867Z,43.75
2022-11-27T04:06:44.175Z,39.63
2022-11-27T04:08:47.612Z,41.35
2022-11-27T04:10:49.866Z,38.40
2022-11-27T04:14:54.006Z,38.40
2022-11-27T04:16:56.110Z,35.72
2022-11-27T04:18:58.106Z,33.55
2022-11-27T04:21:00.199Z,34.35
2022-11-27T04:23:02.193Z,40.67
2022-11-27T04:25:05.086Z,34.47
2022-11-27T04:27:07.108Z,37.63
2022-11-27T04:29:09.520Z,32.00
2022-11-27T04:33:13.493Z,31.60
2022-11-27T04:35:15.665Z,40.30
2022-11-27T04:37:17.784Z,34.22
2022-11-27T04:39:20.400Z,28.67
2022-11-27T04:41:22.653Z,28.77
2022-11-27T04:43:24.665Z,27.42
2022-11-27T04:45:26.769Z,30.35
2022-11-27T04:47:28.813Z,25.88
2022-11-27T04:49:31.386Z,26.05
2022-11-27T04:51:33.885Z,30.60
2022-11-27T04:53:41.596Z,27.20
2022-11-27T04:55:43.650Z,28.60
2022-11-27T04:57:46.117Z,27.95
2022-11-27T04:59:48.392Z,24.30
2022-11-27T05:01:50.786Z,26.65
2022-11-27T05:03:52.906Z,29.80
2022-11-27T05:05:56.768Z,32.38
2022-11-27T05:07:58.913Z,36.60
2022-11-27T05:10:00.976Z,28.80
2022-11-27T05:12:03.311Z,31.88
2022-11-27T05:16:20.472Z,27.45
2022-11-27T05:18:22.702Z,30.70
2022-11-27T05:20:24.738Z,34.13
2022-11-27T05:22:26.899Z,36.42
2022-11-27T05:24:32.592Z,30.13
2022-11-27T05:26:35.495Z,35.47
2022-11-27T05:28:37.527Z,34.30
2022-11-27T05:30:39.661Z,30.35
2022-11-27T05:32:41.661Z,33.55
2022-11-27T05:34:43.953Z,34.60
2022-11-27T05:36:45.970Z,31.10
2022-11-27T05:38:48.308Z,30.67
2022-11-27T05:42:52.433Z,31.90
2022-11-27T05:44:58.254Z,32.75
2022-11-27T05:47:01.549Z,31.67
2022-11-27T05:49:03.758Z,26.17
2022-11-27T05:51:06.251Z,36.80
2022-11-27T05:53:08.737Z,31.35
2022-11-27T05:55:11.612Z,28.90
2022-11-27T05:57:15.224Z,29.73
2022-11-27T05:59:17.538Z,36.83
2022-11-27T06:01:19.966Z,31.85
2022-11-27T06:05:24.478Z,31.83
2022-11-27T06:07:26.585Z,34.03
2022-11-27T06:09:28.718Z,35.85
2022-11-27T06:11:30.985Z,40.30
2022-11-27T06:13:32.994Z,40.25
2022-11-27T06:15:37.592Z,32.38
2022-11-27T06:17:39.834Z,38.00
2022-11-27T06:21:46.649Z,32.97
2022-11-27T06:23:49.184Z,35.42
2022-11-27T06:25:51.199Z,28.27
2022-11-27T06:27:53.315Z,36.42
2022-11-27T06:29:55.463Z,33.63
2022-11-27T06:31:57.549Z,32.97
2022-11-27T06:34:00.270Z,28.75
2022-11-27T06:36:03.811Z,29.80
2022-11-27T06:38:05.951Z,29.40
2022-11-27T06:40:08.662Z,35.10
2022-11-27T06:42:10.866Z,37.20
2022-11-27T06:44:12.997Z,31.23
2022-11-27T06:46:18.183Z,34.33
2022-11-27T06:48:20.285Z,25.92
2022-11-27T06:50:22.962Z,27.48
2022-11-27T06:52:24.971Z,29.48
2022-11-27T06:54:27.124Z,26.00
2022-11-27T06:56:34.529Z,34.22
2022-11-27T06:58:37.629Z,31.20
2022-11-27T07:00:39.906Z,25.40
2022-11-27T07:02:42.246Z,25.48
2022-11-27T07:04:45.038Z,26.02
2022-11-27T07:06:47.233Z,24.58
2022-11-27T07:08:49.356Z,24.80
2022-11-27T07:10:51.514Z,28.30
2022-11-27T07:12:54.328Z,27.02
2022-11-27T07:14:58.155Z,32.05
2022-11-27T07:17:01.857Z,32.00
2022-11-27T07:19:10.545Z,27.58
2022-11-27T07:21:13.192Z,27.20
2022-11-27T07:25:17.511Z,26.77
2022-11-27T07:27:19.605Z,24.73
2022-11-27T07:29:21.591Z,25.02
2022-11-27T07:31:28.298Z,31.27
2022-11-27T07:33:30.514Z,26.50
2022-11-27T07:35:32.577Z,28.38
2022-11-27T07:37:34.811Z,29.02
2022-11-27T07:42:00.166Z,25.55
2022-11-27T07:44:09.910Z,22.25
2022-11-27T07:46:20.801Z,25.38
2022-11-27T07:48:23.151Z,23.98
2022-11-27T07:50:25.192Z,27.30
2022-11-27T07:52:27.515Z,25.85
2022-11-27T07:54:30.907Z,29.95
2022-11-27T07:56:33.023Z,23.60
2022-11-27T07:58:35.638Z,34.70
2022-11-27T08:00:38.237Z,23.42
2022-11-27T08:02:40.373Z,22.63
2022-11-27T08:04:42.761Z,23.98
2022-11-27T08:06:45.009Z,26.27
2022-11-27T08:08:47.727Z,24.00
2022-11-27T08:10:49.677Z,24.35
2022-11-27T08:12:51.716Z,20.90
2022-11-27T08:14:53.716Z,23.83
2022-11-27T08:16:56.141Z,24.92
2022-11-27T08:18:58.713Z,25.63
2022-11-27T08:21:01.304Z,30.63
2022-11-27T08:23:03.471Z,23.92
2022-11-27T08:25:06.122Z,24.85
2022-11-27T08:27:16.506Z,23.30
2022-11-27T08:29:20.916Z,24.58
2022-11-27T08:31:23.550Z,19.35
2022-11-27T08:33:29.257Z,24.08
2022-11-27T08:35:31.430Z,26.42
2022-11-27T08:39:36.484Z,21.13
2022-11-27T08:41:38.806Z,18.52
2022-11-27T08:43:41.269Z,26.05
2022-11-27T08:45:43.708Z,23.90
2022-11-27T08:47:46.341Z,21.05
2022-11-27T08:49:49.145Z,23.15
2022-11-27T08:53:54.074Z,21.42
2022-11-27T08:57:58.807Z,20.17
2022-11-27T09:00:01.005Z,21.05
2022-11-27T09:02:03.641Z,23.67
2022-11-27T09:04:05.957Z,20.58
2022-11-27T09:06:13.578Z,20.42
2022-11-27T09:08:20.507Z,18.63
2022-11-27T09:10:23.278Z,20.20
2022-11-27T09:12:25.602Z,20.27
2022-11-27T09:16:30.813Z,19.80
2022-11-27T09:18:33.543Z,18.10
2022-11-27T09:20:35.782Z,23.45
2022-11-27T09:22:37.951Z,22.55
2022-11-27T09:24:40.321Z,21.83
2022-11-27T09:26:42.610Z,27.30
2022-11-27T09:28:45.285Z,23.48
2022-11-27T09:30:48.043Z,21.63
2022-11-27T09:32:50.326Z,20.00
2022-11-27T09:36:54.542Z,19.97
2022-11-27T09:38:59.253Z,22.40
2022-11-27T09:41:16.331Z,17.15
2022-11-27T09:43:27.516Z,24.30
2022-11-27T09:45:30.649Z,17.27
2022-11-27T09:47:41.140Z,22.08
2022-11-27T09:49:50.621Z,20.20
2022-11-27T09:52:03.624Z,21.15
2022-11-27T09:54:18.873Z,18.48
2022-11-27T09:56:21.052Z,21.90
2022-11-27T09:58:38.214Z,19.38
2022-11-27T10:00:40.511Z,18.52
2022-11-27T10:05:12.304Z,22.25
2022-11-27T10:07:10.779Z,18.92
2022-11-27T10:09:37.227Z,20.88
2022-11-27T10:11:54.542Z,26.02
2022-11-27T10:14:02.887Z,19.63
2022-11-27T10:16:14.012Z,26.42
2022-11-27T10:18:45.815Z,26.90
2022-11-27T10:20:52.315Z,27.05
2022-11-27T10:23:28.409Z,26.65
2022-11-27T10:25:44.612Z,18.33
2022-11-27T10:28:06.054Z,19.60
2022-11-27T10:30:28.964Z,18.98
2022-11-27T10:35:03.712Z,20.80
2022-11-27T10:37:32.707Z,20.33
2022-11-27T10:39:41.922Z,21.52
2022-11-27T10:41:57.552Z,19.48
2022-11-27T10:44:18.451Z,22.85
2022-11-27T10:46:28.068Z,16.80
2022-11-27T10:48:30.554Z,21.13
2022-11-27T10:50:33.855Z,19.27
2022-11-27T10:52:35.825Z,20.52
2022-11-27T10:54:39.975Z,22.27
2022-11-27T10:56:57.213Z,16.90
2022-11-27T10:59:11.379Z,21.00
2022-11-27T11:01:19.424Z,20.92
2022-11-27T11:03:22.859Z,15.73
2022-11-27T11:06:04.828Z,19.75
2022-11-27T11:07:57.204Z,19.10
2022-11-27T11:09:59.432Z,17.58
2022-11-27T11:12:09.393Z,20.05
2022-11-27T11:14:22.832Z,22.67
2022-11-27T11:16:34.833Z,16.75
2022-11-27T11:18:49.944Z,19.40
2022-11-27T11:20:58.652Z,19.40
2022-11-27T11:23:00.703Z,22.27
2022-11-27T11:25:02.825Z,21.98
2022-11-27T11:27:16.356Z,21.20
2022-11-27T11:29:32.600Z,21.65
2022-11-27T11:31:40.721Z,24.13
2022-11-27T11:33:59.714Z,19.35
2022-11-27T11:36:10.884Z,21.65
2022-11-27T11:38:18.625Z,19.63
2022-11-27T11:40:20.657Z,22.52
2022-11-27T11:42:27.409Z,21.80
2022-11-27T11:44:35.971Z,21.10
2022-11-27T11:46:40.287Z,22.70
2022-11-27T11:49:05.025Z,19.85
2022-11-27T11:51:09.900Z,27.35
2022-11-27T11:53:33.237Z,22.48
2022-11-27T11:55:43.798Z,19.73
2022-11-27T11:58:21.208Z,22.73
2022-11-27T12:00:31.486Z,23.08
2022-11-27T12:02:58.041Z,20.63
2022-11-27T12:05:03.672Z,26.63
2022-11-27T12:07:20.759Z,25.40
2022-11-27T12:09:28.060Z,23.67
2022-11-27T12:11:52.223Z,23.55
2022-11-27T12:14:27.164Z,21.85
2022-11-27T12:16:38.325Z,20.95
2022-11-27T12:19:23.643Z,23.40
2022-11-27T12:21:27.964Z,19.58
2022-11-27T12:23:57.198Z,22.45
2022-11-27T12:26:32.462Z,20.50
2022-11-27T12:28:58.784Z,22.77
2022-11-27T12:31:12.284Z,20.67
2022-11-27T12:33:46.737Z,25.73
2022-11-27T12:36:26.914Z,27.15
2022-11-27T12:39:01.412Z,24.80
2022-11-27T12:41:34.914Z,25.65
2022-11-27T12:43:48.092Z,23.67
2022-11-27T12:45:54.626Z,27.83
2022-11-27T12:48:11.976Z,28.80
2022-11-27T12:50:24.076Z,23.25
2022-11-27T12:52:34.673Z,25.20
2022-11-27T12:54:54.909Z,28.83
2022-11-27T12:57:13.362Z,26.40
2022-11-27T12:59:43.337Z,27.42
2022-11-27T13:02:02.809Z,26.00
2022-11-27T13:04:18.596Z,26.00
2022-11-27T13:06:25.501Z,29.48
2022-11-27T13:08:36.286Z,24.50
2022-11-27T13:10:52.828Z,29.42
2022-11-27T13:13:23.703Z,28.42
2022-11-27T13:15:25.706Z,28.38
2022-11-27T13:17:39.341Z,25.95
2022-11-27T13:19:46.327Z,25.23
2022-11-27T13:21:49.917Z,25.23
2022-11-27T13:23:52.354Z,26.10
2022-11-27T13:28:05.435Z,23.63
2022-11-27T13:30:24.029Z,32.08
2022-11-27T13:32:30.198Z,25.20
2022-11-27T13:34:42.129Z,26.35
2022-11-27T13:37:05.764Z,31.75
2022-11-27T13:39:30.860Z,31.23
2022-11-27T13:41:46.880Z,24.52
2022-11-27T13:44:45.113Z,26.40
2022-11-27T13:47:09.642Z,27.40
2022-11-27T13:49:48.251Z,34.03
2022-11-27T13:52:15.803Z,23.38
2022-11-27T13:54:35.367Z,29.10
2022-11-27T13:56:43.599Z,34.17
2022-11-27T13:58:46.002Z,31.63
2022-11-27T14:00:54.088Z,26.98
2022-11-27T14:03:01.893Z,28.25
2022-11-27T14:05:15.413Z,29.98
2022-11-27T14:07:18.262Z,30.50
2022-11-27T14:10:17.470Z,31.05
2022-11-27T14:12:39.156Z,32.65
2022-11-27T14:15:13.122Z,33.67
2022-11-27T14:17:37.883Z,32.20
2022-11-27T14:19:46.685Z,33.55
2022-11-27T14:21:55.353Z,29.38
2022-11-27T14:24:09.968Z,36.60
2022-11-27T14:26:24.530Z,37.28
2022-11-27T14:28:39.296Z,35.30
2022-11-27T14:30:52.325Z,33.55
2022-11-27T14:32:58.307Z,31.33
2022-11-27T14:35:27.856Z,34.75
2022-11-27T14:37:35.900Z,35.90
2022-11-27T14:39:44.073Z,33.17
2022-11-27T14:41:57.392Z,38.10
2022-11-27T14:44:14.198Z,37.80
2022-11-27T14:46:22.102Z,32.90
2022-11-27T14:48:27.485Z,45.65
2022-11-27T14:50:29.868Z,29.60
2022-11-27T14:52:32.044Z,34.40
2022-11-27T14:54:39.411Z,35.38
2022-11-27T14:56:50.005Z,32.40
2022-11-27T14:58:54.747Z,32.50
2022-11-27T15:01:05.544Z,34.47
2022-11-27T15:03:14.164Z,32.15
2022-11-27T15:05:29.777Z,32.75
2022-11-27T15:07:46.564Z,34.55
2022-11-27T15:10:14.056Z,32.10
2022-11-27T15:12:34.419Z,31.73
2022-11-27T15:15:18.196Z,30.23
2022-11-27T15:17:49.438Z,31.25
2022-11-27T15:20:18.519Z,30.63
2022-11-27T15:22:33.135Z,31.88
2022-11-27T15:24:49.939Z,31.50
2022-11-27T15:27:13.664Z,34.53
2022-11-27T15:29:37.039Z,25.75
2022-11-27T15:32:03.348Z,30.85
2022-11-27T15:34:31.269Z,31.00
2022-11-27T15:36:56.707Z,33.30
2022-11-27T15:39:51.927Z,32.05
2022-11-27T15:42:10.683Z,36.47
2022-11-27T15:44:18.256Z,34.40
2022-11-27T15:46:35.340Z,33.00
2022-11-27T15:48:38.117Z,35.40
2022-11-27T15:50:48.229Z,42.20
2022-11-27T15:53:01.142Z,32.72
2022-11-27T15:55:06.667Z,41.03
2022-11-27T15:57:15.766Z,38.45
2022-11-27T15:59:26.306Z,39.38
2022-11-27T16:01:31.526Z,37.15
2022-11-27T16:03:46.731Z,36.90
2022-11-27T16:06:03.581Z,34.47
2022-11-27T16:08:11.477Z,40.97
2022-11-27T16:10:16.972Z,38.15
2022-11-27T16:12:28.298Z,35.75
2022-11-27T16:14:30.358Z,33.33
2022-11-27T16:16:33.047Z,36.60
2022-11-27T16:18:35.594Z,41.67
2022-11-27T16:20:37.822Z,42.55
2022-11-27T16:22:42.724Z,38.58
2022-11-27T16:24:54.305Z,36.53
2022-11-27T16:27:07.405Z,38.33
2022-11-27T16:29:10.645Z,40.42
2022-11-27T16:31:21.417Z,34.45
2022-11-27T16:33:31.940Z,31.35
2022-11-27T16:35:56.373Z,38.20
2022-11-27T16:38:01.624Z,34.25
2022-11-27T16:40:08.988Z,39.50
2022-11-27T16:42:26.597Z,39.33
2022-11-27T16:44:38.329Z,35.10
2022-11-27T16:46:46.666Z,35.33
2022-11-27T16:48:53.301Z,38.10
2022-11-27T16:51:18.349Z,34.40
2022-11-27T16:53:24.455Z,38.85
2022-11-27T16:55:28.039Z,30.50
2022-11-27T16:57:37.168Z,34.30
2022-11-27T16:59:53.747Z,30.60
2022-11-27T17:02:03.503Z,30.40
2022-11-27T17:04:14.944Z,35.67
2022-11-27T17:06:42.099Z,34.05
2022-11-27T17:08:47.067Z,34.65
2022-11-27T17:10:49.267Z,29.65
2022-11-27T17:13:00.100Z,34.90
2022-11-27T17:15:02.691Z,38.08
2022-11-27T17:17:06.704Z,34.60
2022-11-27T17:19:17.566Z,36.47
2022-11-27T17:21:40.840Z,34.78
2022-11-27T17:23:48.118Z,38.47
2022-11-27T17:26:34.130Z,32.22
2022-11-27T17:28:59.215Z,33.47
2022-11-27T17:31:21.782Z,36.67
2022-11-27T17:33:30.040Z,35.00
2022-11-27T17:37:34.486Z,35.92
2022-11-27T17:39:37.818Z,41.90
2022-11-27T17:41:42.646Z,39.90
2022-11-27T17:43:48.317Z,33.72
2022-11-27T17:46:03.406Z,36.47
2022-11-27T17:48:05.956Z,46.03
2022-11-27T17:50:11.226Z,36.45
2022-11-27T17:52:22.273Z,31.15
2022-11-27T17:54:24.703Z,32.85
2022-11-27T17:56:31.948Z,35.58
2022-11-27T17:58:34.611Z,31.63
2022-11-27T18:00:49.507Z,38.83
2022-11-27T18:03:02.284Z,38.65
2022-11-27T18:05:12.212Z,34.92
2022-11-27T18:07:14.456Z,32.20
2022-11-27T18:09:22.551Z,33.55
2022-11-27T18:11:40.738Z,35.10
2022-11-27T18:13:48.845Z,34.97
2022-11-27T18:15:54.123Z,37.85
2022-11-27T18:18:14.002Z,35.38
2022-11-27T18:20:31.718Z,36.92
2022-11-27T18:22:43.190Z,38.53
2022-11-27T18:24:48.769Z,37.72
2022-11-27T18:27:10.190Z,41.78
2022-11-27T18:29:15.388Z,35.88
2022-11-27T18:31:20.710Z,32.45
2022-11-27T18:33:22.870Z,39.20
2022-11-27T18:35:53.503Z,38.63
2022-11-27T18:37:55.629Z,36.85
2022-11-27T18:39:57.919Z,36.58
2022-11-27T18:42:07.469Z,35.08
2022-11-27T18:44:27.697Z,36.58
2022-11-27T18:47:23.024Z,36.97
2022-11-27T18:49:35.711Z,39.45
2022-11-27T18:51:54.361Z,38.90
2022-11-27T18:53:56.736Z,34.10
2022-11-27T18:56:11.323Z,36.17
2022-11-27T18:58:25.655Z,35.58
2022-11-27T19:00:30.499Z,42.20
2022-11-27T19:02:41.894Z,44.30
2022-11-27T19:04:47.365Z,38.03
2022-11-27T19:07:01.820Z,36.55
2022-11-27T19:09:11.795Z,36.75
2022-11-27T19:11:19.449Z,38.60
2022-11-27T19:13:30.836Z,37.80
2022-11-27T19:15:38.454Z,35.10
2022-11-27T19:17:43.331Z,43.63
2022-11-27T19:19:54.864Z,37.70
2022-11-27T19:22:02.564Z,39.40
2022-11-27T19:24:11.632Z,39.00
2022-11-27T19:26:28.080Z,38.25
2022-11-27T19:28:30.138Z,41.78
2022-11-27T19:30:42.603Z,33.15
2022-11-27T19:32:53.824Z,35.05
2022-11-27T19:35:06.808Z,37.78
2022-11-27T19:37:09.585Z,39.10
2022-11-27T19:39:27.417Z,35.67
2022-11-27T19:41:30.308Z,39.08
2022-11-27T19:43:41.603Z,38.90
2022-11-27T19:45:46.736Z,41.80
2022-11-27T19:48:03.579Z,37.63
2022-11-27T19:50:18.377Z,39.85
2022-11-27T19:52:20.604Z,41.47
2022-11-27T19:54:25.505Z,37.55
2022-11-27T19:56:30.481Z,43.05
2022-11-27T19:58:42.719Z,39.80
2022-11-27T20:00:55.659Z,40.00
2022-11-27T20:03:09.936Z,40.22
2022-11-27T20:05:12.200Z,38.15
2022-11-27T20:07:23.527Z,42.05
2022-11-27T20:09:36.042Z,36.08
2022-11-27T20:11:49.272Z,40.50
2022-11-27T20:14:10.035Z,43.67
2022-11-27T20:16:27.152Z,46.40
2022-11-27T20:18:48.212Z,38.88
2022-11-27T20:20:51.414Z,37.75
2022-11-27T20:23:02.665Z,44.25
2022-11-27T20:25:19.479Z,45.85
2022-11-27T20:27:21.971Z,36.85
2022-11-27T20:29:33.330Z,39.60
2022-11-27T20:31:56.277Z,44.88
2022-11-27T20:34:06.799Z,41.63
2022-11-27T20:36:45.779Z,45.47
2022-11-27T20:38:51.054Z,49.92
2022-11-27T20:40:54.884Z,43.92
2022-11-27T20:42:59.730Z,45.80
2022-11-27T20:45:05.262Z,46.40
2022-11-27T20:47:22.822Z,42.20
2022-11-27T20:49:28.825Z,39.40
2022-11-27T20:51:35.931Z,45.13
2022-11-27T20:53:46.739Z,57.45
2022-11-27T20:55:51.607Z,48.65
2022-11-27T20:58:15.012Z,61.90
2022-11-27T21:00:24.315Z,54.53
2022-11-27T21:02:41.868Z,54.42
2022-11-27T21:04:47.337Z,53.97
2022-11-27T21:07:02.426Z,52.65
2022-11-27T21:09:30.580Z,47.45
2022-11-27T21:11:54.728Z,63.10
2022-11-27T21:14:02.845Z,68.03
2022-11-27T21:16:27.804Z,63.15
2022-11-27T21:18:36.367Z,65.65
2022-11-27T21:20:38.730Z,66.82
2022-11-27T21:22:47.365Z,66.13
2022-11-27T21:24:52.751Z,55.10
2022-11-27T21:27:10.246Z,61.20
2022-11-27T21:29:31.622Z,57.25
2022-11-27T21:31:38.813Z,56.63
2022-11-27T21:33:53.040Z,57.63
2022-11-27T21:35:58.030Z,71.07
2022-11-27T21:38:15.195Z,62.20
2022-11-27T21:40:21.486Z,58.13
2022-11-27T21:42:45.926Z,59.65
2022-11-27T21:44:49.353Z,52.40
2022-11-27T21:49:25.344Z,55.80
2022-11-27T21:51:30.616Z,57.38
2022-11-27T21:54:10.118Z,49.33
2022-11-27T21:56:16.614Z,57.35
2022-11-27T21:58:18.816Z,64.50
2022-11-27T22:00:30.294Z,46.25
2022-11-27T22:02:35.312Z,65.20
2022-11-27T22:04:48.171Z,54.25
2022-11-27T22:06:53.293Z,57.25
2022-11-27T22:08:58.104Z,49.45
2022-11-27T22:11:10.332Z,62.90
2022-11-27T22:13:29.134Z,50.15
2022-11-27T22:15:42.035Z,56.30
2022-11-27T22:17:51.211Z,49.42
2022-11-27T22:22:07.360Z,52.40
2022-11-27T22:24:27.225Z,51.85
2022-11-27T22:26:37.933Z,55.40
2022-11-27T22:28:43.143Z,47.28
2022-11-27T22:30:51.213Z,51.97
2022-11-27T22:32:59.764Z,48.30
2022-11-27T22:35:11.149Z,50.13
2022-11-27T22:37:13.686Z,35.43
2022-11-27T22:39:21.743Z,39.85
2022-11-27T22:41:32.168Z,42.70
2022-11-27T22:43:35.775Z,39.40
2022-11-27T22:45:44.428Z,35.60
2022-11-27T22:47:46.651Z,43.70
2022-11-27T22:49:49.661Z,34.17
2022-11-27T22:51:52.187Z,32.65
2022-11-27T22:53:56.269Z,34.60
2022-11-27T22:56:10.970Z,33.92
2022-11-27T22:58:16.330Z,43.03
2022-11-27T23:00:18.577Z,33.47
2022-11-27T23:02:23.847Z,33.20
2022-11-27T23:04:25.982Z,36.67
2022-11-27T23:06:28.889Z,31.00
2022-11-27T23:08:31.052Z,32.45
2022-11-27T23:10:45.446Z,39.88
2022-11-27T23:12:47.609Z,31.92
2022-11-27T23:14:50.026Z,34.05
2022-11-27T23:18:54.381Z,38.50
2022-11-27T23:21:18.161Z,35.67
2022-11-27T23:23:20.498Z,35.47
2022-11-27T23:25:22.686Z,40.75
2022-11-27T23:27:24.894Z,35.58
2022-11-27T23:29:27.525Z,39.67
2022-11-27T23:31:34.335Z,36.38
2022-11-27T23:33:37.391Z,39.10
2022-11-27T23:35:39.505Z,34.63
2022-11-27T23:37:41.846Z,33.70
2022-11-27T23:39:44.116Z,38.20
2022-11-27T23:41:49.288Z,32.95
2022-11-27T23:43:52.494Z,27.25
2022-11-27T23:45:54.874Z,32.45
2022-11-27T23:50:02.260Z,30.53
2022-11-27T23:52:04.990Z,34.55
2022-11-27T23:56:14.876Z,33.00
2022-11-27T23:58:17.081Z,31.50
